map of CSK home
CSK - Airport
Location
City:  Cap Skirring, Ziguinchor, Senegal
Name:Cap Skirring Airport
ICAO:GOGS
IATA:CSK

Details
Type:Airport (Aerodrome, Airfield)
Use:Public/Civil
Latitude:1224'37"N (12.410200)
Longitude:1644'46"W (-16.746124)
Datum:WGS 1984
Elevation:52 ft (16 m)
Variation:7.47W (WMM2015 magnetic declination)
0.11 annual change
Runways:1
Longest:6561 × 98 ft (2000 × 30 m), paved

Time
Time Zone:UTC+0
Local Time:

Weather
METAR:GOGS 160900Z 02008KT CAVOK 25/16 Q1012
TAF:GOGS 160530Z 1606/1706 36005KT CAVOK= TAF LIRQ 160500Z 1606/1706 04012KT 9999 SCT040

Related Locations
Nearby:
Farthest:NNB: 12313 mi / 19815 km
Santa Ana Island (Ghupuna) [Santa Ana Airport], SB

Find:

   beyond  
but within

Other Information
Maps:
NOTAMs:
Links:
Sources:

  
  • flag of Senegal
  

Sectional Chart

Flight Planning
at skyvector.com

Satellite Image

Google Maps Satellite view

 

Copyright © 2004-2018 Karl L. Swartz. All rights reserved.
The Great Circle Mapper name and logo are trademarks of the Great Circle Mapper.
All other trademarks mentioned herein belong to their respective owners.
Please see credits for attibutions and further copyright information.

  Follow gcmap on Facebook Follow gcmap on Twitter Follow gcmap on Google+ GCmap on LinkedIn

hCard Microformat

Geo Microformat